sensor_id;sensor_type;location;lat;lon;timestamp;P1;P2;P0
74078;PMS5003;62437;51.544;-3.276;2022-09-09T00:00:47;10;10;
74078;PMS5003;62437;51.544;-3.276;2022-09-09T00:03:14;10;10;
74078;PMS5003;62437;51.544;-3.276;2022-09-09T00:05:38;12;12;
74078;PMS5003;62437;51.544;-3.276;2022-09-09T00:08:03;13;13;
74078;PMS5003;62437;51.544;-3.276;2022-09-09T00:10:30;11;11;
74078;PMS5003;62437;51.544;-3.276;2022-09-09T00:12:57;12;12;
74078;PMS5003;62437;51.544;-3.276;2022-09-09T00:15:20;10;10;
74078;PMS5003;62437;51.544;-3.276;2022-09-09T00:17:47;12;11;
74078;PMS5003;62437;51.544;-3.276;2022-09-09T00:20:12;11;10;
74078;PMS5003;62437;51.544;-3.276;2022-09-09T00:22:38;10;10;
74078;PMS5003;62437;51.544;-3.276;2022-09-09T00:25:08;9;9;
74078;PMS5003;62437;51.544;-3.276;2022-09-09T00:27:29;9;9;
74078;PMS5003;62437;51.544;-3.276;2022-09-09T00:29:54;14;14;
74078;PMS5003;62437;51.544;-3.276;2022-09-09T00:32:20;10;10;
74078;PMS5003;62437;51.544;-3.276;2022-09-09T00:34:47;13;13;
74078;PMS5003;62437;51.544;-3.276;2022-09-09T00:37:11;10;8;
74078;PMS5003;62437;51.544;-3.276;2022-09-09T00:39:37;9;9;
74078;PMS5003;62437;51.544;-3.276;2022-09-09T00:42:08;9;9;
74078;PMS5003;62437;51.544;-3.276;2022-09-09T00:44:30;7;7;
74078;PMS5003;62437;51.544;-3.276;2022-09-09T00:46:56;8;8;
74078;PMS5003;62437;51.544;-3.276;2022-09-09T00:49:21;8;8;
74078;PMS5003;62437;51.544;-3.276;2022-09-09T00:51:46;5;4;
74078;PMS5003;62437;51.544;-3.276;2022-09-09T00:54:13;5;5;
74078;PMS5003;62437;51.544;-3.276;2022-09-09T00:56:36;4;3;
74078;PMS5003;62437;51.544;-3.276;2022-09-09T00:59:04;4;4;
74078;PMS5003;62437;51.544;-3.276;2022-09-09T01:01:27;4;4;
74078;PMS5003;62437;51.544;-3.276;2022-09-09T01:03:53;4;3;
74078;PMS5003;62437;51.544;-3.276;2022-09-09T01:06:20;3;3;
74078;PMS5003;62437;51.544;-3.276;2022-09-09T01:08:59;3;2;
74078;PMS5003;62437;51.544;-3.276;2022-09-09T01:11:10;5;3;
74078;PMS5003;62437;51.544;-3.276;2022-09-09T01:13:37;3;3;
74078;PMS5003;62437;51.544;-3.276;2022-09-09T01:16:02;2;2;
74078;PMS5003;62437;51.544;-3.276;2022-09-09T01:18:27;3;3;
74078;PMS5003;62437;51.544;-3.276;2022-09-09T01:20:54;3;3;
74078;PMS5003;62437;51.544;-3.276;2022-09-09T01:23:25;4;3;
74078;PMS5003;62437;51.544;-3.276;2022-09-09T01:28:10;2;2;
74078;PMS5003;62437;51.544;-3.276;2022-09-09T01:30:35;3;3;
74078;PMS5003;62437;51.544;-3.276;2022-09-09T01:33:00;3;2;
74078;PMS5003;62437;51.544;-3.276;2022-09-09T01:35:29;3;3;
74078;PMS5003;62437;51.544;-3.276;2022-09-09T01:37:51;3;3;
74078;PMS5003;62437;51.544;-3.276;2022-09-09T01:40:17;2;2;
74078;PMS5003;62437;51.544;-3.276;2022-09-09T01:42:43;3;2;
74078;PMS5003;62437;51.544;-3.276;2022-09-09T01:45:09;2;2;
74078;PMS5003;62437;51.544;-3.276;2022-09-09T01:47:34;3;3;
74078;PMS5003;62437;51.544;-3.276;2022-09-09T01:50:00;2;2;
74078;PMS5003;62437;51.544;-3.276;2022-09-09T01:52:25;3;3;
74078;PMS5003;62437;51.544;-3.276;2022-09-09T01:54:52;4;4;
74078;PMS5003;62437;51.544;-3.276;2022-09-09T01:57:18;2;2;
74078;PMS5003;62437;51.544;-3.276;2022-09-09T01:59:48;1;1;
74078;PMS5003;62437;51.544;-3.276;2022-09-09T02:02:11;3;2;
74078;PMS5003;62437;51.544;-3.276;2022-09-09T02:04:36;3;3;
74078;PMS5003;62437;51.544;-3.276;2022-09-09T02:07:00;4;2;
74078;PMS5003;62437;51.544;-3.276;2022-09-09T02:09:26;2;2;
74078;PMS5003;62437;51.544;-3.276;2022-09-09T02:11:52;3;3;
74078;PMS5003;62437;51.544;-3.276;2022-09-09T02:14:17;3;3;
74078;PMS5003;62437;51.544;-3.276;2022-09-09T02:16:43;5;4;
74078;PMS5003;62437;51.544;-3.276;2022-09-09T02:19:08;2;2;
74078;PMS5003;62437;51.544;-3.276;2022-09-09T02:21:34;4;4;
74078;PMS5003;62437;51.544;-3.276;2022-09-09T02:24:02;3;3;
74078;PMS5003;62437;51.544;-3.276;2022-09-09T02:26:25;4;4;
74078;PMS5003;62437;51.544;-3.276;2022-09-09T02:28:51;3;3;
74078;PMS5003;62437;51.544;-3.276;2022-09-09T02:31:17;4;4;
74078;PMS5003;62437;51.544;-3.276;2022-09-09T02:33:42;3;3;
74078;PMS5003;62437;51.544;-3.276;2022-09-09T02:36:08;2;2;
74078;PMS5003;62437;51.544;-3.276;2022-09-09T02:38:34;4;4;
74078;PMS5003;62437;51.544;-3.276;2022-09-09T02:40:59;3;3;
74078;PMS5003;62437;51.544;-3.276;2022-09-09T02:43:25;4;4;
74078;PMS5003;62437;51.544;-3.276;2022-09-09T02:45:51;2;2;
74078;PMS5003;62437;51.544;-3.276;2022-09-09T02:48:18;3;3;
74078;PMS5003;62437;51.544;-3.276;2022-09-09T02:50:43;3;3;
74078;PMS5003;62437;51.544;-3.276;2022-09-09T02:53:07;4;3;
74078;PMS5003;62437;51.544;-3.276;2022-09-09T02:55:37;5;5;
74078;PMS5003;62437;51.544;-3.276;2022-09-09T02:57:58;6;5;
74078;PMS5003;62437;51.544;-3.276;2022-09-09T03:00:25;1;1;
74078;PMS5003;62437;51.544;-3.276;2022-09-09T03:02:50;5;4;
74078;PMS5003;62437;51.544;-3.276;2022-09-09T03:05:15;3;3;
74078;PMS5003;62437;51.544;-3.276;2022-09-09T03:07:41;2;2;
74078;PMS5003;62437;51.544;-3.276;2022-09-09T03:10:07;5;4;
74078;PMS5003;62437;51.544;-3.276;2022-09-09T03:12:32;3;2;
74078;PMS5003;62437;51.544;-3.276;2022-09-09T03:14:58;3;3;
74078;PMS5003;62437;51.544;-3.276;2022-09-09T03:17:24;4;3;
74078;PMS5003;62437;51.544;-3.276;2022-09-09T03:19:50;3;3;
74078;PMS5003;62437;51.544;-3.276;2022-09-09T03:22:15;4;4;
74078;PMS5003;62437;51.544;-3.276;2022-09-09T03:24:41;3;3;
74078;PMS5003;62437;51.544;-3.276;2022-09-09T03:27:08;3;3;
74078;PMS5003;62437;51.544;-3.276;2022-09-09T03:29:32;3;3;
74078;PMS5003;62437;51.544;-3.276;2022-09-09T03:31:58;4;4;
74078;PMS5003;62437;51.544;-3.276;2022-09-09T03:34:24;3;3;
74078;PMS5003;62437;51.544;-3.276;2022-09-09T03:36:49;3;3;
74078;PMS5003;62437;51.544;-3.276;2022-09-09T03:39:15;4;4;
74078;PMS5003;62437;51.544;-3.276;2022-09-09T03:41:40;2;2;
74078;PMS5003;62437;51.544;-3.276;2022-09-09T03:44:06;2;2;
74078;PMS5003;62437;51.544;-3.276;2022-09-09T03:46:32;2;2;
74078;PMS5003;62437;51.544;-3.276;2022-09-09T03:48:58;4;4;
74078;PMS5003;62437;51.544;-3.276;2022-09-09T03:51:23;3;3;
74078;PMS5003;62437;51.544;-3.276;2022-09-09T03:53:49;2;2;
74078;PMS5003;62437;51.544;-3.276;2022-09-09T03:56:15;1;1;
74078;PMS5003;62437;51.544;-3.276;2022-09-09T03:58:40;2;2;
74078;PMS5003;62437;51.544;-3.276;2022-09-09T04:01:06;2;2;
74078;PMS5003;62437;51.544;-3.276;2022-09-09T04:03:32;2;2;
74078;PMS5003;62437;51.544;-3.276;2022-09-09T04:05:58;3;3;
74078;PMS5003;62437;51.544;-3.276;2022-09-09T04:08:23;2;2;
74078;PMS5003;62437;51.544;-3.276;2022-09-09T04:10:49;2;2;
74078;PMS5003;62437;51.544;-3.276;2022-09-09T04:13:14;2;2;
74078;PMS5003;62437;51.544;-3.276;2022-09-09T04:15:40;2;2;
74078;PMS5003;62437;51.544;-3.276;2022-09-09T04:18:06;3;3;
74078;PMS5003;62437;51.544;-3.276;2022-09-09T04:20:31;1;1;
74078;PMS5003;62437;51.544;-3.276;2022-09-09T04:22:57;2;2;
74078;PMS5003;62437;51.544;-3.276;2022-09-09T04:25:23;2;2;
74078;PMS5003;62437;51.544;-3.276;2022-09-09T04:27:53;1;1;
74078;PMS5003;62437;51.544;-3.276;2022-09-09T04:30:14;1;1;
74078;PMS5003;62437;51.544;-3.276;2022-09-09T04:32:40;4;3;
74078;PMS5003;62437;51.544;-3.276;2022-09-09T04:35:06;3;3;
74078;PMS5003;62437;51.544;-3.276;2022-09-09T04:37:31;3;2;
74078;PMS5003;62437;51.544;-3.276;2022-09-09T04:39:58;3;3;
74078;PMS5003;62437;51.544;-3.276;2022-09-09T04:42:23;2;2;
74078;PMS5003;62437;51.544;-3.276;2022-09-09T04:44:48;2;2;
74078;PMS5003;62437;51.544;-3.276;2022-09-09T04:47:16;3;3;
74078;PMS5003;62437;51.544;-3.276;2022-09-09T04:49:40;2;2;
74078;PMS5003;62437;51.544;-3.276;2022-09-09T04:52:06;2;2;
74078;PMS5003;62437;51.544;-3.276;2022-09-09T04:54:31;3;3;
74078;PMS5003;62437;51.544;-3.276;2022-09-09T04:56:57;2;2;
74078;PMS5003;62437;51.544;-3.276;2022-09-09T04:59:23;2;2;
74078;PMS5003;62437;51.544;-3.276;2022-09-09T05:01:48;1;1;
74078;PMS5003;62437;51.544;-3.276;2022-09-09T05:04:14;3;3;
74078;PMS5003;62437;51.544;-3.276;2022-09-09T05:06:40;2;2;
74078;PMS5003;62437;51.544;-3.276;2022-09-09T05:09:06;2;2;
74078;PMS5003;62437;51.544;-3.276;2022-09-09T05:11:32;1;1;
74078;PMS5003;62437;51.544;-3.276;2022-09-09T05:13:57;4;4;
74078;PMS5003;62437;51.544;-3.276;2022-09-09T05:16:23;2;2;
74078;PMS5003;62437;51.544;-3.276;2022-09-09T05:18:49;4;3;
74078;PMS5003;62437;51.544;-3.276;2022-09-09T05:21:18;4;3;
74078;PMS5003;62437;51.544;-3.276;2022-09-09T05:23:40;3;3;
74078;PMS5003;62437;51.544;-3.276;2022-09-09T05:26:06;2;2;
74078;PMS5003;62437;51.544;-3.276;2022-09-09T05:28:33;5;4;
74078;PMS5003;62437;51.544;-3.276;2022-09-09T05:30:57;2;1;
74078;PMS5003;62437;51.544;-3.276;2022-09-09T05:33:23;3;3;
74078;PMS5003;62437;51.544;-3.276;2022-09-09T05:38:14;3;3;
74078;PMS5003;62437;51.544;-3.276;2022-09-09T05:43:05;2;2;
74078;PMS5003;62437;51.544;-3.276;2022-09-09T05:45:31;2;2;
74078;PMS5003;62437;51.544;-3.276;2022-09-09T05:47:57;3;3;
74078;PMS5003;62437;51.544;-3.276;2022-09-09T05:50:22;3;3;
74078;PMS5003;62437;51.544;-3.276;2022-09-09T05:52:48;3;3;
74078;PMS5003;62437;51.544;-3.276;2022-09-09T05:55:14;6;4;
74078;PMS5003;62437;51.544;-3.276;2022-09-09T05:57:39;4;4;
74078;PMS5003;62437;51.544;-3.276;2022-09-09T06:00:06;4;4;
74078;PMS5003;62437;51.544;-3.276;2022-09-09T06:02:31;4;3;
74078;PMS5003;62437;51.544;-3.276;2022-09-09T06:04:56;5;5;
74078;PMS5003;62437;51.544;-3.276;2022-09-09T06:07:22;4;4;
74078;PMS5003;62437;51.544;-3.276;2022-09-09T06:09:48;5;5;
74078;PMS5003;62437;51.544;-3.276;2022-09-09T06:12:14;4;3;
74078;PMS5003;62437;51.544;-3.276;2022-09-09T06:14:39;3;3;
74078;PMS5003;62437;51.544;-3.276;2022-09-09T06:17:04;4;3;
74078;PMS5003;62437;51.544;-3.276;2022-09-09T06:19:30;4;4;
74078;PMS5003;62437;51.544;-3.276;2022-09-09T06:21:56;4;4;
74078;PMS5003;62437;51.544;-3.276;2022-09-09T06:24:22;2;2;
74078;PMS5003;62437;51.544;-3.276;2022-09-09T06:26:47;6;5;
74078;PMS5003;62437;51.544;-3.276;2022-09-09T06:29:13;7;7;
74078;PMS5003;62437;51.544;-3.276;2022-09-09T06:31:38;3;3;
74078;PMS5003;62437;51.544;-3.276;2022-09-09T06:34:04;4;3;
74078;PMS5003;62437;51.544;-3.276;2022-09-09T06:36:30;6;6;
74078;PMS5003;62437;51.544;-3.276;2022-09-09T06:38:55;4;3;
74078;PMS5003;62437;51.544;-3.276;2022-09-09T06:41:21;6;6;
74078;PMS5003;62437;51.544;-3.276;2022-09-09T06:43:46;4;4;
74078;PMS5003;62437;51.544;-3.276;2022-09-09T06:46:13;6;5;
74078;PMS5003;62437;51.544;-3.276;2022-09-09T06:48:38;4;4;
74078;PMS5003;62437;51.544;-3.276;2022-09-09T06:51:04;4;4;
74078;PMS5003;62437;51.544;-3.276;2022-09-09T06:53:29;7;6;
74078;PMS5003;62437;51.544;-3.276;2022-09-09T06:55:54;4;4;
74078;PMS5003;62437;51.544;-3.276;2022-09-09T06:58:20;5;4;
74078;PMS5003;62437;51.544;-3.276;2022-09-09T07:00:46;6;5;
74078;PMS5003;62437;51.544;-3.276;2022-09-09T07:03:12;3;3;
74078;PMS5003;62437;51.544;-3.276;2022-09-09T07:05:37;4;3;
74078;PMS5003;62437;51.544;-3.276;2022-09-09T07:08:04;5;5;
74078;PMS5003;62437;51.544;-3.276;2022-09-09T07:10:29;3;3;
74078;PMS5003;62437;51.544;-3.276;2022-09-09T07:12:54;6;6;
74078;PMS5003;62437;51.544;-3.276;2022-09-09T07:15:20;4;3;
74078;PMS5003;62437;51.544;-3.276;2022-09-09T07:17:46;7;6;
74078;PMS5003;62437;51.544;-3.276;2022-09-09T07:20:11;2;2;
74078;PMS5003;62437;51.544;-3.276;2022-09-09T07:22:37;6;5;
74078;PMS5003;62437;51.544;-3.276;2022-09-09T07:25:03;5;3;
74078;PMS5003;62437;51.544;-3.276;2022-09-09T07:27:28;4;4;
74078;PMS5003;62437;51.544;-3.276;2022-09-09T07:29:54;4;4;
74078;PMS5003;62437;51.544;-3.276;2022-09-09T07:32:20;4;4;
74078;PMS5003;62437;51.544;-3.276;2022-09-09T07:34:45;4;4;
74078;PMS5003;62437;51.544;-3.276;2022-09-09T07:37:12;4;4;
74078;PMS5003;62437;51.544;-3.276;2022-09-09T07:39:36;2;2;
74078;PMS5003;62437;51.544;-3.276;2022-09-09T07:42:02;2;2;
74078;PMS5003;62437;51.544;-3.276;2022-09-09T07:44:28;3;3;
74078;PMS5003;62437;51.544;-3.276;2022-09-09T07:46:53;4;4;
74078;PMS5003;62437;51.544;-3.276;2022-09-09T07:49:19;2;2;
74078;PMS5003;62437;51.544;-3.276;2022-09-09T07:51:45;3;3;
74078;PMS5003;62437;51.544;-3.276;2022-09-09T07:54:11;3;3;
74078;PMS5003;62437;51.544;-3.276;2022-09-09T07:56:36;2;2;
74078;PMS5003;62437;51.544;-3.276;2022-09-09T07:59:02;2;2;
74078;PMS5003;62437;51.544;-3.276;2022-09-09T08:01:28;2;2;
74078;PMS5003;62437;51.544;-3.276;2022-09-09T08:03:54;3;3;
74078;PMS5003;62437;51.544;-3.276;2022-09-09T08:06:19;3;3;
74078;PMS5003;62437;51.544;-3.276;2022-09-09T08:08:44;3;2;
74078;PMS5003;62437;51.544;-3.276;2022-09-09T08:11:11;3;3;
74078;PMS5003;62437;51.544;-3.276;2022-09-09T08:13:36;3;3;
74078;PMS5003;62437;51.544;-3.276;2022-09-09T08:16:05;3;3;
74078;PMS5003;62437;51.544;-3.276;2022-09-09T08:18:27;2;2;
74078;PMS5003;62437;51.544;-3.276;2022-09-09T08:20:52;2;1;
74078;PMS5003;62437;51.544;-3.276;2022-09-09T08:23:18;2;2;
74078;PMS5003;62437;51.544;-3.276;2022-09-09T08:25:43;2;2;
74078;PMS5003;62437;51.544;-3.276;2022-09-09T08:28:09;2;2;
74078;PMS5003;62437;51.544;-3.276;2022-09-09T08:30:35;3;2;
74078;PMS5003;62437;51.544;-3.276;2022-09-09T08:33:00;3;3;
74078;PMS5003;62437;51.544;-3.276;2022-09-09T08:35:26;1;1;
74078;PMS5003;62437;51.544;-3.276;2022-09-09T08:37:53;3;3;
74078;PMS5003;62437;51.544;-3.276;2022-09-09T08:40:18;2;2;
74078;PMS5003;62437;51.544;-3.276;2022-09-09T08:42:43;3;2;
74078;PMS5003;62437;51.544;-3.276;2022-09-09T08:45:14;3;2;
74078;PMS5003;62437;51.544;-3.276;2022-09-09T08:47:36;3;3;
74078;PMS5003;62437;51.544;-3.276;2022-09-09T08:50:05;3;2;
74078;PMS5003;62437;51.544;-3.276;2022-09-09T08:52:27;2;2;
74078;PMS5003;62437;51.544;-3.276;2022-09-09T08:54:52;2;2;
74078;PMS5003;62437;51.544;-3.276;2022-09-09T08:57:18;1;1;
74078;PMS5003;62437;51.544;-3.276;2022-09-09T08:59:42;2;1;
74078;PMS5003;62437;51.544;-3.276;2022-09-09T09:02:11;2;2;
74078;PMS5003;62437;51.544;-3.276;2022-09-09T09:04:39;2;2;
74078;PMS5003;62437;51.544;-3.276;2022-09-09T09:07:04;4;3;
74078;PMS5003;62437;51.544;-3.276;2022-09-09T09:11:52;1;1;
74078;PMS5003;62437;51.544;-3.276;2022-09-09T09:14:17;3;3;
74078;PMS5003;62437;51.544;-3.276;2022-09-09T09:16:45;2;2;
74078;PMS5003;62437;51.544;-3.276;2022-09-09T09:19:08;2;2;
74078;PMS5003;62437;51.544;-3.276;2022-09-09T09:21:34;5;4;
74078;PMS5003;62437;51.544;-3.276;2022-09-09T09:23:59;2;2;
74078;PMS5003;62437;51.544;-3.276;2022-09-09T09:26:26;3;3;
74078;PMS5003;62437;51.544;-3.276;2022-09-09T09:28:50;2;2;
74078;PMS5003;62437;51.544;-3.276;2022-09-09T09:31:16;4;3;
74078;PMS5003;62437;51.544;-3.276;2022-09-09T09:33:44;3;3;
74078;PMS5003;62437;51.544;-3.276;2022-09-09T09:36:07;4;4;
74078;PMS5003;62437;51.544;-3.276;2022-09-09T09:38:33;5;5;
74078;PMS5003;62437;51.544;-3.276;2022-09-09T09:40:59;3;3;
74078;PMS5003;62437;51.544;-3.276;2022-09-09T09:43:25;3;3;
74078;PMS5003;62437;51.544;-3.276;2022-09-09T09:45:50;4;3;
74078;PMS5003;62437;51.544;-3.276;2022-09-09T09:48:15;2;2;
74078;PMS5003;62437;51.544;-3.276;2022-09-09T09:55:33;3;3;
74078;PMS5003;62437;51.544;-3.276;2022-09-09T09:58:03;2;2;
74078;PMS5003;62437;51.544;-3.276;2022-09-09T10:00:23;1;1;
74078;PMS5003;62437;51.544;-3.276;2022-09-09T10:02:49;3;3;
74078;PMS5003;62437;51.544;-3.276;2022-09-09T10:05:16;2;2;
74078;PMS5003;62437;51.544;-3.276;2022-09-09T10:07:40;3;3;
74078;PMS5003;62437;51.544;-3.276;2022-09-09T10:10:08;2;2;
74078;PMS5003;62437;51.544;-3.276;2022-09-09T10:12:37;3;3;
74078;PMS5003;62437;51.544;-3.276;2022-09-09T10:15:02;4;4;
74078;PMS5003;62437;51.544;-3.276;2022-09-09T10:17:24;3;3;
74078;PMS5003;62437;51.544;-3.276;2022-09-09T10:19:51;3;3;
74078;PMS5003;62437;51.544;-3.276;2022-09-09T10:22:17;5;5;
74078;PMS5003;62437;51.544;-3.276;2022-09-09T10:27:06;5;5;
74078;PMS5003;62437;51.544;-3.276;2022-09-09T10:29:34;4;4;
74078;PMS5003;62437;51.544;-3.276;2022-09-09T10:31:59;4;4;
74078;PMS5003;62437;51.544;-3.276;2022-09-09T10:34:24;4;4;
74078;PMS5003;62437;51.544;-3.276;2022-09-09T10:36:49;5;5;
74078;PMS5003;62437;51.544;-3.276;2022-09-09T10:39:15;4;4;
74078;PMS5003;62437;51.544;-3.276;2022-09-09T10:41:42;3;3;
74078;PMS5003;62437;51.544;-3.276;2022-09-09T10:44:14;5;5;
74078;PMS5003;62437;51.544;-3.276;2022-09-09T10:46:31;6;6;
74078;PMS5003;62437;51.544;-3.276;2022-09-09T10:49:01;5;5;
74078;PMS5003;62437;51.544;-3.276;2022-09-09T10:51:22;9;9;
74078;PMS5003;62437;51.544;-3.276;2022-09-09T10:53:50;10;9;
74078;PMS5003;62437;51.544;-3.276;2022-09-09T10:56:13;10;9;
74078;PMS5003;62437;51.544;-3.276;2022-09-09T10:58:40;15;14;
74078;PMS5003;62437;51.544;-3.276;2022-09-09T11:01:07;15;15;
74078;PMS5003;62437;51.544;-3.276;2022-09-09T11:03:29;16;15;
74078;PMS5003;62437;51.544;-3.276;2022-09-09T11:05:56;20;18;
74078;PMS5003;62437;51.544;-3.276;2022-09-09T11:08:20;13;13;
74078;PMS5003;62437;51.544;-3.276;2022-09-09T11:10:45;15;15;
74078;PMS5003;62437;51.544;-3.276;2022-09-09T11:13:11;17;15;
74078;PMS5003;62437;51.544;-3.276;2022-09-09T11:15:39;12;12;
74078;PMS5003;62437;51.544;-3.276;2022-09-09T11:18:04;12;11;
74078;PMS5003;62437;51.544;-3.276;2022-09-09T11:20:27;6;6;
74078;PMS5003;62437;51.544;-3.276;2022-09-09T11:22:54;9;8;
74078;PMS5003;62437;51.544;-3.276;2022-09-09T11:25:20;8;8;
74078;PMS5003;62437;51.544;-3.276;2022-09-09T11:27:50;9;9;
74078;PMS5003;62437;51.544;-3.276;2022-09-09T11:30:16;9;9;
74078;PMS5003;62437;51.544;-3.276;2022-09-09T11:32:43;11;9;
74078;PMS5003;62437;51.544;-3.276;2022-09-09T11:35:02;11;11;
74078;PMS5003;62437;51.544;-3.276;2022-09-09T11:39:58;8;8;
74078;PMS5003;62437;51.544;-3.276;2022-09-09T11:42:19;8;8;
74078;PMS5003;62437;51.544;-3.276;2022-09-09T11:44:44;8;8;
74078;PMS5003;62437;51.544;-3.276;2022-09-09T11:49:40;6;6;
74078;PMS5003;62437;51.544;-3.276;2022-09-09T11:54:29;6;6;
74078;PMS5003;62437;51.544;-3.276;2022-09-09T11:56:52;5;5;
74078;PMS5003;62437;51.544;-3.276;2022-09-09T11:59:20;6;4;
74078;PMS5003;62437;51.544;-3.276;2022-09-09T12:01:43;6;6;
74078;PMS5003;62437;51.544;-3.276;2022-09-09T12:04:11;6;6;
74078;PMS5003;62437;51.544;-3.276;2022-09-09T12:11:26;6;5;
74078;PMS5003;62437;51.544;-3.276;2022-09-09T12:13:53;6;6;
74078;PMS5003;62437;51.544;-3.276;2022-09-09T12:18:43;7;6;
74078;PMS5003;62437;51.544;-3.276;2022-09-09T12:21:12;2;2;
74078;PMS5003;62437;51.544;-3.276;2022-09-09T12:23:37;4;3;
74078;PMS5003;62437;51.544;-3.276;2022-09-09T12:26:03;6;6;
74078;PMS5003;62437;51.544;-3.276;2022-09-09T12:28:27;3;3;
74078;PMS5003;62437;51.544;-3.276;2022-09-09T12:30:54;6;6;
74078;PMS5003;62437;51.544;-3.276;2022-09-09T12:33:17;4;4;
74078;PMS5003;62437;51.544;-3.276;2022-09-09T12:35:42;4;4;
74078;PMS5003;62437;51.544;-3.276;2022-09-09T12:38:09;4;4;
74078;PMS5003;62437;51.544;-3.276;2022-09-09T12:40:33;3;3;
74078;PMS5003;62437;51.544;-3.276;2022-09-09T12:42:58;5;5;
74078;PMS5003;62437;51.544;-3.276;2022-09-09T12:45:25;8;8;
74078;PMS5003;62437;51.544;-3.276;2022-09-09T12:47:50;8;8;
74078;PMS5003;62437;51.544;-3.276;2022-09-09T12:50:15;7;7;
74078;PMS5003;62437;51.544;-3.276;2022-09-09T12:52:41;10;9;
74078;PMS5003;62437;51.544;-3.276;2022-09-09T12:55:06;8;8;
74078;PMS5003;62437;51.544;-3.276;2022-09-09T12:57:33;9;8;
74078;PMS5003;62437;51.544;-3.276;2022-09-09T13:02:24;4;4;
74078;PMS5003;62437;51.544;-3.276;2022-09-09T13:04:49;5;5;
74078;PMS5003;62437;51.544;-3.276;2022-09-09T13:07:15;5;5;
74078;PMS5003;62437;51.544;-3.276;2022-09-09T13:09:40;4;4;
74078;PMS5003;62437;51.544;-3.276;2022-09-09T13:12:05;3;3;
74078;PMS5003;62437;51.544;-3.276;2022-09-09T13:14:31;4;4;
74078;PMS5003;62437;51.544;-3.276;2022-09-09T13:16:57;6;6;
74078;PMS5003;62437;51.544;-3.276;2022-09-09T13:19:21;4;4;
74078;PMS5003;62437;51.544;-3.276;2022-09-09T13:21:47;3;3;
74078;PMS5003;62437;51.544;-3.276;2022-09-09T13:24:26;3;3;
74078;PMS5003;62437;51.544;-3.276;2022-09-09T13:26:38;4;4;
74078;PMS5003;62437;51.544;-3.276;2022-09-09T13:29:08;3;3;
74078;PMS5003;62437;51.544;-3.276;2022-09-09T13:31:30;3;3;
74078;PMS5003;62437;51.544;-3.276;2022-09-09T13:33:55;3;3;
74078;PMS5003;62437;51.544;-3.276;2022-09-09T13:41:19;3;3;
74078;PMS5003;62437;51.544;-3.276;2022-09-09T13:43:38;3;3;
74078;PMS5003;62437;51.544;-3.276;2022-09-09T13:46:04;3;3;
74078;PMS5003;62437;51.544;-3.276;2022-09-09T13:48:29;2;2;
74078;PMS5003;62437;51.544;-3.276;2022-09-09T13:50:55;1;1;
74078;PMS5003;62437;51.544;-3.276;2022-09-09T13:53:20;3;3;
74078;PMS5003;62437;51.544;-3.276;2022-09-09T13:55:46;4;4;
74078;PMS5003;62437;51.544;-3.276;2022-09-09T13:58:15;3;3;
74078;PMS5003;62437;51.544;-3.276;2022-09-09T14:00:37;4;4;
74078;PMS5003;62437;51.544;-3.276;2022-09-09T14:03:02;6;6;
74078;PMS5003;62437;51.544;-3.276;2022-09-09T14:05:29;9;8;
74078;PMS5003;62437;51.544;-3.276;2022-09-09T14:07:54;14;14;
74078;PMS5003;62437;51.544;-3.276;2022-09-09T14:10:19;15;14;
74078;PMS5003;62437;51.544;-3.276;2022-09-09T14:12:44;11;10;
74078;PMS5003;62437;51.544;-3.276;2022-09-09T14:15:10;10;10;
74078;PMS5003;62437;51.544;-3.276;2022-09-09T14:17:35;8;8;
74078;PMS5003;62437;51.544;-3.276;2022-09-09T14:20:01;9;9;
74078;PMS5003;62437;51.544;-3.276;2022-09-09T14:22:26;7;7;
74078;PMS5003;62437;51.544;-3.276;2022-09-09T14:24:52;7;6;
74078;PMS5003;62437;51.544;-3.276;2022-09-09T14:27:18;12;12;
74078;PMS5003;62437;51.544;-3.276;2022-09-09T14:29:44;14;13;
74078;PMS5003;62437;51.544;-3.276;2022-09-09T14:32:09;10;9;
74078;PMS5003;62437;51.544;-3.276;2022-09-09T14:34:34;11;10;
74078;PMS5003;62437;51.544;-3.276;2022-09-09T14:37:01;10;10;
74078;PMS5003;62437;51.544;-3.276;2022-09-09T14:39:25;11;11;
74078;PMS5003;62437;51.544;-3.276;2022-09-09T14:41:51;9;9;
74078;PMS5003;62437;51.544;-3.276;2022-09-09T14:44:17;12;12;
74078;PMS5003;62437;51.544;-3.276;2022-09-09T14:46:42;14;13;
74078;PMS5003;62437;51.544;-3.276;2022-09-09T14:49:08;12;12;
74078;PMS5003;62437;51.544;-3.276;2022-09-09T14:51:33;10;10;
74078;PMS5003;62437;51.544;-3.276;2022-09-09T14:53:59;9;9;
74078;PMS5003;62437;51.544;-3.276;2022-09-09T14:56:25;5;5;
74078;PMS5003;62437;51.544;-3.276;2022-09-09T14:58:49;8;8;
74078;PMS5003;62437;51.544;-3.276;2022-09-09T15:01:15;12;12;
74078;PMS5003;62437;51.544;-3.276;2022-09-09T15:03:41;7;7;
74078;PMS5003;62437;51.544;-3.276;2022-09-09T15:06:07;12;10;
74078;PMS5003;62437;51.544;-3.276;2022-09-09T15:08:32;14;14;
74078;PMS5003;62437;51.544;-3.276;2022-09-09T15:10:58;8;8;
74078;PMS5003;62437;51.544;-3.276;2022-09-09T15:13:23;8;8;
74078;PMS5003;62437;51.544;-3.276;2022-09-09T15:15:48;9;9;
74078;PMS5003;62437;51.544;-3.276;2022-09-09T15:18:14;10;10;
74078;PMS5003;62437;51.544;-3.276;2022-09-09T15:20:44;16;15;
74078;PMS5003;62437;51.544;-3.276;2022-09-09T15:23:14;13;13;
74078;PMS5003;62437;51.544;-3.276;2022-09-09T15:25:31;14;14;
74078;PMS5003;62437;51.544;-3.276;2022-09-09T15:27:56;12;12;
74078;PMS5003;62437;51.544;-3.276;2022-09-09T15:30:22;13;13;
74078;PMS5003;62437;51.544;-3.276;2022-09-09T15:32:47;14;14;
74078;PMS5003;62437;51.544;-3.276;2022-09-09T15:35:12;13;13;
74078;PMS5003;62437;51.544;-3.276;2022-09-09T15:37:38;13;12;
74078;PMS5003;62437;51.544;-3.276;2022-09-09T15:40:04;12;12;
74078;PMS5003;62437;51.544;-3.276;2022-09-09T15:42:29;12;12;
74078;PMS5003;62437;51.544;-3.276;2022-09-09T15:44:55;11;11;
74078;PMS5003;62437;51.544;-3.276;2022-09-09T15:47:20;10;10;
74078;PMS5003;62437;51.544;-3.276;2022-09-09T15:49:46;10;10;
74078;PMS5003;62437;51.544;-3.276;2022-09-09T15:52:11;8;7;
74078;PMS5003;62437;51.544;-3.276;2022-09-09T15:54:37;8;8;
74078;PMS5003;62437;51.544;-3.276;2022-09-09T15:57:03;6;5;
74078;PMS5003;62437;51.544;-3.276;2022-09-09T15:59:29;6;6;
74078;PMS5003;62437;51.544;-3.276;2022-09-09T16:01:54;8;8;
74078;PMS5003;62437;51.544;-3.276;2022-09-09T16:04:19;9;8;
74078;PMS5003;62437;51.544;-3.276;2022-09-09T16:06:46;4;4;
74078;PMS5003;62437;51.544;-3.276;2022-09-09T16:09:10;5;5;
74078;PMS5003;62437;51.544;-3.276;2022-09-09T16:11:36;6;6;
74078;PMS5003;62437;51.544;-3.276;2022-09-09T16:14:01;2;2;
74078;PMS5003;62437;51.544;-3.276;2022-09-09T16:16:28;6;6;
74078;PMS5003;62437;51.544;-3.276;2022-09-09T16:18:53;6;6;
74078;PMS5003;62437;51.544;-3.276;2022-09-09T16:21:20;3;3;
74078;PMS5003;62437;51.544;-3.276;2022-09-09T16:23:44;1;1;
74078;PMS5003;62437;51.544;-3.276;2022-09-09T16:26:10;5;4;
74078;PMS5003;62437;51.544;-3.276;2022-09-09T16:28:35;3;3;
74078;PMS5003;62437;51.544;-3.276;2022-09-09T16:31:04;3;2;
74078;PMS5003;62437;51.544;-3.276;2022-09-09T16:33:26;3;3;
74078;PMS5003;62437;51.544;-3.276;2022-09-09T16:35:51;2;2;
74078;PMS5003;62437;51.544;-3.276;2022-09-09T16:38:17;2;2;
74078;PMS5003;62437;51.544;-3.276;2022-09-09T16:40:43;3;3;
74078;PMS5003;62437;51.544;-3.276;2022-09-09T16:43:08;3;2;
74078;PMS5003;62437;51.544;-3.276;2022-09-09T16:45:34;2;2;
74078;PMS5003;62437;51.544;-3.276;2022-09-09T16:47:59;1;1;
74078;PMS5003;62437;51.544;-3.276;2022-09-09T16:50:25;2;2;
74078;PMS5003;62437;51.544;-3.276;2022-09-09T16:52:51;2;2;
74078;PMS5003;62437;51.544;-3.276;2022-09-09T16:55:16;3;3;